createdAt,value
2018-09-10T00:06:50.517Z,4.1
2018-09-10T00:17:14.112Z,4.7
2018-09-10T00:27:20.087Z,4.5
2018-09-10T00:37:21.831Z,4.4
2018-09-10T00:47:46.539Z,4.3
2018-09-10T00:57:59.708Z,4.4
2018-09-10T01:08:08.207Z,4.5
2018-09-10T01:18:15.377Z,4.7
2018-09-10T01:28:23.625Z,4.5
2018-09-10T01:38:30.819Z,4.6
2018-09-10T01:48:45.071Z,4.5
2018-09-10T01:58:54.932Z,4.4
2018-09-10T02:09:01.871Z,4.5
2018-09-10T02:19:19.203Z,4.6
2018-09-10T02:29:29.435Z,4.4
2018-09-10T02:39:42.148Z,4.5
2018-09-10T02:49:49.971Z,4.8
2018-09-10T02:59:59.632Z,4
2018-09-10T03:10:05.688Z,4.7
2018-09-10T03:20:12.434Z,4.6
2018-09-10T03:30:31.556Z,4.4
2018-09-10T03:40:43.543Z,4.4
2018-09-10T03:50:52.499Z,4.4
2018-09-10T04:00:54.774Z,4.1
2018-09-10T04:10:55.734Z,4.3
2018-09-10T04:20:55.992Z,4.3
2018-09-10T04:31:02.450Z,4.1
2018-09-10T04:41:18.551Z,4.1
2018-09-10T04:51:24.482Z,3.9
2018-09-10T05:01:30.056Z,4.4
2018-09-10T05:11:33.674Z,4.9
2018-09-10T05:21:33.788Z,4.1
2018-09-10T05:31:35.071Z,4.2
2018-09-10T05:41:35.575Z,3.9
2018-09-10T05:51:36.427Z,4.3
2018-09-10T06:01:36.426Z,4.6
2018-09-10T06:11:36.096Z,4
2018-09-10T06:21:36.003Z,3.9
2018-09-10T06:31:35.735Z,2.9
2018-09-10T06:41:36.451Z,3
2018-09-10T06:51:38.871Z,3.4
2018-09-10T07:01:41.016Z,2.7
2018-09-10T07:11:44.654Z,2.8
2018-09-10T07:21:45.125Z,2.6
2018-09-10T07:31:44.978Z,2.7
2018-09-10T07:41:47.809Z,2.4
2018-09-10T07:51:49.458Z,2.6
2018-09-10T08:01:49.838Z,2.8
2018-09-10T08:11:51.816Z,3.3
2018-09-10T08:21:52.866Z,3.3
2018-09-10T08:31:54.901Z,3.5
2018-09-10T08:41:58.754Z,3.4
2018-09-10T08:51:58.731Z,2.5
2018-09-10T09:02:04.300Z,2.8
2018-09-10T09:12:16.333Z,2.8
2018-09-10T09:22:17.631Z,3.1
2018-09-10T09:32:19.033Z,2.9
2018-09-10T09:42:28.177Z,2.8
2018-09-10T09:52:35.516Z,3.2
2018-09-10T10:02:40.564Z,3.1
2018-09-10T10:12:45.424Z,2.9
2018-09-10T10:22:45.597Z,2.5
2018-09-10T10:32:47.676Z,2.4
2018-09-10T10:42:49.110Z,1.9
2018-09-10T10:52:53.176Z,2.3
2018-09-10T11:02:54.113Z,2.2
2018-09-10T11:12:57.166Z,2.6
2018-09-10T11:23:04.996Z,2.2
2018-09-10T11:33:07.888Z,2.4
2018-09-10T11:43:11.443Z,2.3
2018-09-10T11:53:15.124Z,2.3
2018-09-10T12:03:25.858Z,3
2018-09-10T12:13:28.544Z,2.4
2018-09-10T12:23:33.121Z,2.1
2018-09-10T12:33:40.006Z,2.2
2018-09-10T12:43:46.719Z,1.9
2018-09-10T12:53:46.792Z,2.4
2018-09-10T13:03:47.975Z,2.6
2018-09-10T13:13:52.656Z,2.6
2018-09-10T13:23:53.693Z,2
2018-09-10T13:33:53.363Z,2.2
2018-09-10T13:43:53.243Z,2.3
2018-09-10T13:53:53.133Z,2.3
2018-09-10T14:03:53.116Z,1.9
2018-09-10T14:13:53.298Z,2.2
2018-09-10T14:23:55.166Z,2.2
2018-09-10T14:33:58.014Z,2
2018-09-10T14:43:59.776Z,2.7
2018-09-10T14:54:00.977Z,1.9
2018-09-10T15:04:01.356Z,2.3
2018-09-10T15:14:01.378Z,2.2
2018-09-10T15:24:02.986Z,2.3
2018-09-10T15:34:02.582Z,2.3
2018-09-10T15:44:04.159Z,2.4
2018-09-10T15:54:04.464Z,2.2
2018-09-10T16:04:04.756Z,2.4
2018-09-10T16:14:04.460Z,2.4
2018-09-10T16:24:04.291Z,1.9
2018-09-10T16:34:07.103Z,2.2
2018-09-10T16:44:06.827Z,2.1
2018-09-10T16:54:08.188Z,1.9
2018-09-10T17:04:10.923Z,2.7
2018-09-10T17:14:16.226Z,2.7
2018-09-10T17:24:25.941Z,3.1
2018-09-10T17:34:37.405Z,2.6
2018-09-10T17:44:43.189Z,2.6
2018-09-10T17:54:45.555Z,2.6
2018-09-10T18:04:50.248Z,3.3
2018-09-10T18:14:50.935Z,4.5
2018-09-10T18:24:51.587Z,4.8
2018-09-10T18:34:52.394Z,3.4
2018-09-10T18:44:53.327Z,3.1
2018-09-10T18:54:54.813Z,3.4
2018-09-10T19:04:56.728Z,3.4
2018-09-10T19:14:59.541Z,2.6
2018-09-10T19:24:59.267Z,3
2018-09-10T19:35:00.198Z,3.6
2018-09-10T19:45:00.348Z,3.3
2018-09-10T19:55:01.155Z,3.5
2018-09-10T20:05:01.670Z,3.4
2018-09-10T20:21:50.235Z,3.5
2018-09-10T20:31:53.147Z,3.4
2018-09-10T20:41:53.279Z,3
2018-09-10T20:51:53.230Z,3.4
2018-09-10T21:02:03.238Z,2.6
2018-09-10T21:12:16.855Z,3.3
2018-09-10T21:22:30.184Z,3.1
2018-09-10T21:32:35.507Z,3.3
2018-09-10T21:42:48.657Z,3.3
2018-09-10T21:52:49.354Z,2.7
2018-09-10T22:02:50.968Z,2.8
2018-09-10T22:12:51.829Z,3.4
2018-09-10T22:22:55.851Z,3.2
2018-09-10T22:33:00.452Z,3.2
2018-09-10T22:43:00.524Z,3.2
2018-09-10T22:53:01.419Z,3.2
2018-09-10T23:03:02.824Z,2.7
2018-09-10T23:13:08.108Z,2.9
2018-09-10T23:23:11.983Z,3.1
2018-09-10T23:33:13.165Z,3.1
2018-09-10T23:43:13.227Z,3.1
2018-09-10T23:53:19.458Z,3.2
